sensor_id;sensor_type;location;lat;lon;timestamp;P1;durP1;ratioP1;P2;durP2;ratioP2
11839;SDS011;5979;50.800;4.904;2024-01-25T00:01:53;32.00;;;8.18;;
11839;SDS011;5979;50.800;4.904;2024-01-25T00:04:19;24.58;;;7.72;;
11839;SDS011;5979;50.800;4.904;2024-01-25T00:06:45;37.55;;;8.70;;
11839;SDS011;5979;50.800;4.904;2024-01-25T00:09:10;32.75;;;9.25;;
11839;SDS011;5979;50.800;4.904;2024-01-25T00:11:36;30.88;;;8.43;;
11839;SDS011;5979;50.800;4.904;2024-01-25T00:14:02;32.63;;;8.90;;
11839;SDS011;5979;50.800;4.904;2024-01-25T00:16:28;34.08;;;8.73;;
11839;SDS011;5979;50.800;4.904;2024-01-25T00:18:53;27.92;;;8.45;;
11839;SDS011;5979;50.800;4.904;2024-01-25T00:21:19;35.85;;;9.38;;
11839;SDS011;5979;50.800;4.904;2024-01-25T00:23:45;21.45;;;6.90;;
11839;SDS011;5979;50.800;4.904;2024-01-25T00:26:11;29.48;;;8.48;;
11839;SDS011;5979;50.800;4.904;2024-01-25T00:28:37;30.35;;;7.90;;
11839;SDS011;5979;50.800;4.904;2024-01-25T00:31:03;36.08;;;8.68;;
11839;SDS011;5979;50.800;4.904;2024-01-25T00:33:29;30.33;;;7.57;;
11839;SDS011;5979;50.800;4.904;2024-01-25T00:35:55;34.13;;;8.88;;
11839;SDS011;5979;50.800;4.904;2024-01-25T00:38:21;35.58;;;7.40;;
11839;SDS011;5979;50.800;4.904;2024-01-25T00:40:46;35.13;;;10.00;;
11839;SDS011;5979;50.800;4.904;2024-01-25T00:43:13;36.55;;;7.72;;
11839;SDS011;5979;50.800;4.904;2024-01-25T00:45:39;26.23;;;8.40;;
11839;SDS011;5979;50.800;4.904;2024-01-25T00:48:05;24.95;;;7.63;;
11839;SDS011;5979;50.800;4.904;2024-01-25T00:50:31;38.15;;;9.20;;
11839;SDS011;5979;50.800;4.904;2024-01-25T00:52:57;34.90;;;9.60;;
11839;SDS011;5979;50.800;4.904;2024-01-25T00:55:23;27.50;;;8.05;;
11839;SDS011;5979;50.800;4.904;2024-01-25T00:57:49;32.50;;;8.85;;
11839;SDS011;5979;50.800;4.904;2024-01-25T01:00:17;26.85;;;7.75;;
11839;SDS011;5979;50.800;4.904;2024-01-25T01:02:43;33.78;;;7.97;;
11839;SDS011;5979;50.800;4.904;2024-01-25T01:05:10;22.15;;;6.63;;
11839;SDS011;5979;50.800;4.904;2024-01-25T01:07:37;32.60;;;8.50;;
11839;SDS011;5979;50.800;4.904;2024-01-25T01:10:05;36.10;;;8.55;;
11839;SDS011;5979;50.800;4.904;2024-01-25T01:12:33;35.05;;;8.05;;
11839;SDS011;5979;50.800;4.904;2024-01-25T01:14:59;34.00;;;8.35;;
11839;SDS011;5979;50.800;4.904;2024-01-25T01:17:24;37.00;;;9.00;;
11839;SDS011;5979;50.800;4.904;2024-01-25T01:19:50;32.03;;;7.93;;
11839;SDS011;5979;50.800;4.904;2024-01-25T01:22:16;33.90;;;6.38;;
11839;SDS011;5979;50.800;4.904;2024-01-25T01:24:41;33.53;;;8.20;;
11839;SDS011;5979;50.800;4.904;2024-01-25T01:27:07;32.70;;;7.53;;
11839;SDS011;5979;50.800;4.904;2024-01-25T01:29:33;27.73;;;6.55;;
11839;SDS011;5979;50.800;4.904;2024-01-25T01:31:58;28.33;;;7.07;;
11839;SDS011;5979;50.800;4.904;2024-01-25T01:34:24;23.05;;;7.47;;
11839;SDS011;5979;50.800;4.904;2024-01-25T01:36:50;28.35;;;6.65;;
11839;SDS011;5979;50.800;4.904;2024-01-25T01:39:15;26.23;;;7.50;;
11839;SDS011;5979;50.800;4.904;2024-01-25T01:41:41;26.48;;;6.68;;
11839;SDS011;5979;50.800;4.904;2024-01-25T01:44:07;26.60;;;6.32;;
11839;SDS011;5979;50.800;4.904;2024-01-25T01:49:06;24.20;;;6.68;;
11839;SDS011;5979;50.800;4.904;2024-01-25T01:51:34;27.38;;;7.18;;
11839;SDS011;5979;50.800;4.904;2024-01-25T01:54:01;36.88;;;7.80;;
11839;SDS011;5979;50.800;4.904;2024-01-25T01:56:28;26.45;;;6.88;;
11839;SDS011;5979;50.800;4.904;2024-01-25T01:58:58;30.23;;;6.82;;
11839;SDS011;5979;50.800;4.904;2024-01-25T02:01:33;21.98;;;7.13;;
11839;SDS011;5979;50.800;4.904;2024-01-25T02:03:58;29.70;;;7.60;;
11839;SDS011;5979;50.800;4.904;2024-01-25T02:06:24;24.92;;;6.80;;
11839;SDS011;5979;50.800;4.904;2024-01-25T02:08:50;24.15;;;6.65;;
11839;SDS011;5979;50.800;4.904;2024-01-25T02:11:18;25.45;;;7.18;;
11839;SDS011;5979;50.800;4.904;2024-01-25T02:13:44;24.25;;;6.47;;
11839;SDS011;5979;50.800;4.904;2024-01-25T02:16:10;33.25;;;6.97;;
11839;SDS011;5979;50.800;4.904;2024-01-25T02:18:35;24.20;;;6.32;;
11839;SDS011;5979;50.800;4.904;2024-01-25T02:21:01;24.48;;;6.47;;
11839;SDS011;5979;50.800;4.904;2024-01-25T02:23:27;30.02;;;7.88;;
11839;SDS011;5979;50.800;4.904;2024-01-25T02:25:53;32.65;;;7.68;;
11839;SDS011;5979;50.800;4.904;2024-01-25T02:28:18;34.05;;;6.53;;
11839;SDS011;5979;50.800;4.904;2024-01-25T02:30:44;35.35;;;6.70;;
11839;SDS011;5979;50.800;4.904;2024-01-25T02:33:10;32.55;;;7.60;;
11839;SDS011;5979;50.800;4.904;2024-01-25T02:35:36;24.48;;;7.35;;
11839;SDS011;5979;50.800;4.904;2024-01-25T02:38:02;27.73;;;6.63;;
11839;SDS011;5979;50.800;4.904;2024-01-25T02:40:28;25.92;;;7.95;;
11839;SDS011;5979;50.800;4.904;2024-01-25T02:42:54;23.95;;;7.03;;
11839;SDS011;5979;50.800;4.904;2024-01-25T02:45:21;29.67;;;7.15;;
11839;SDS011;5979;50.800;4.904;2024-01-25T02:47:47;25.23;;;7.55;;
11839;SDS011;5979;50.800;4.904;2024-01-25T02:50:13;29.20;;;6.82;;
11839;SDS011;5979;50.800;4.904;2024-01-25T02:52:39;24.38;;;6.10;;
11839;SDS011;5979;50.800;4.904;2024-01-25T02:55:05;26.85;;;8.02;;
11839;SDS011;5979;50.800;4.904;2024-01-25T02:57:31;35.22;;;8.65;;
11839;SDS011;5979;50.800;4.904;2024-01-25T02:59:57;23.60;;;6.57;;
11839;SDS011;5979;50.800;4.904;2024-01-25T03:02:23;26.02;;;6.13;;
11839;SDS011;5979;50.800;4.904;2024-01-25T03:04:49;28.23;;;6.72;;
11839;SDS011;5979;50.800;4.904;2024-01-25T03:07:14;29.75;;;6.43;;
11839;SDS011;5979;50.800;4.904;2024-01-25T03:09:40;28.90;;;6.53;;
11839;SDS011;5979;50.800;4.904;2024-01-25T03:12:06;20.38;;;6.65;;
11839;SDS011;5979;50.800;4.904;2024-01-25T03:14:32;29.88;;;6.65;;
11839;SDS011;5979;50.800;4.904;2024-01-25T03:16:57;24.33;;;6.43;;
11839;SDS011;5979;50.800;4.904;2024-01-25T03:19:24;29.25;;;7.53;;
11839;SDS011;5979;50.800;4.904;2024-01-25T03:21:50;26.83;;;5.72;;
11839;SDS011;5979;50.800;4.904;2024-01-25T03:24:16;27.88;;;7.38;;
11839;SDS011;5979;50.800;4.904;2024-01-25T03:26:42;26.33;;;6.30;;
11839;SDS011;5979;50.800;4.904;2024-01-25T03:29:08;22.33;;;5.45;;
11839;SDS011;5979;50.800;4.904;2024-01-25T03:31:33;21.42;;;5.95;;
11839;SDS011;5979;50.800;4.904;2024-01-25T03:34:00;25.33;;;6.20;;
11839;SDS011;5979;50.800;4.904;2024-01-25T03:36:26;22.48;;;5.15;;
11839;SDS011;5979;50.800;4.904;2024-01-25T03:38:52;19.70;;;5.07;;
11839;SDS011;5979;50.800;4.904;2024-01-25T03:41:18;19.10;;;5.47;;
11839;SDS011;5979;50.800;4.904;2024-01-25T03:43:43;21.02;;;5.82;;
11839;SDS011;5979;50.800;4.904;2024-01-25T03:46:10;18.83;;;5.30;;
11839;SDS011;5979;50.800;4.904;2024-01-25T03:48:37;18.50;;;5.15;;
11839;SDS011;5979;50.800;4.904;2024-01-25T03:51:02;23.88;;;5.50;;
11839;SDS011;5979;50.800;4.904;2024-01-25T03:53:28;20.52;;;6.18;;
11839;SDS011;5979;50.800;4.904;2024-01-25T03:55:54;18.30;;;5.60;;
11839;SDS011;5979;50.800;4.904;2024-01-25T03:58:19;23.83;;;6.57;;
11839;SDS011;5979;50.800;4.904;2024-01-25T04:00:45;22.23;;;5.97;;
11839;SDS011;5979;50.800;4.904;2024-01-25T04:03:11;17.23;;;5.03;;
11839;SDS011;5979;50.800;4.904;2024-01-25T04:05:37;17.33;;;5.45;;
11839;SDS011;5979;50.800;4.904;2024-01-25T04:08:05;17.75;;;5.65;;
11839;SDS011;5979;50.800;4.904;2024-01-25T04:10:31;19.42;;;5.82;;
11839;SDS011;5979;50.800;4.904;2024-01-25T04:12:57;25.75;;;6.60;;
11839;SDS011;5979;50.800;4.904;2024-01-25T04:15:23;21.70;;;6.63;;
11839;SDS011;5979;50.800;4.904;2024-01-25T04:17:48;22.80;;;6.00;;
11839;SDS011;5979;50.800;4.904;2024-01-25T04:23:06;19.55;;;4.88;;
11839;SDS011;5979;50.800;4.904;2024-01-25T04:25:32;21.77;;;5.82;;
11839;SDS011;5979;50.800;4.904;2024-01-25T04:27:57;27.23;;;6.55;;
11839;SDS011;5979;50.800;4.904;2024-01-25T04:30:23;23.75;;;5.97;;
11839;SDS011;5979;50.800;4.904;2024-01-25T04:32:49;18.80;;;6.05;;
11839;SDS011;5979;50.800;4.904;2024-01-25T04:35:14;17.42;;;5.18;;
11839;SDS011;5979;50.800;4.904;2024-01-25T04:37:40;23.90;;;5.88;;
11839;SDS011;5979;50.800;4.904;2024-01-25T04:40:06;19.33;;;5.32;;
11839;SDS011;5979;50.800;4.904;2024-01-25T04:42:32;29.80;;;6.47;;
11839;SDS011;5979;50.800;4.904;2024-01-25T04:44:58;24.98;;;6.00;;
11839;SDS011;5979;50.800;4.904;2024-01-25T04:47:24;19.23;;;5.72;;
11839;SDS011;5979;50.800;4.904;2024-01-25T04:49:49;23.42;;;5.68;;
11839;SDS011;5979;50.800;4.904;2024-01-25T04:52:15;21.13;;;5.57;;
11839;SDS011;5979;50.800;4.904;2024-01-25T04:54:41;17.95;;;5.25;;
11839;SDS011;5979;50.800;4.904;2024-01-25T04:57:07;17.23;;;4.72;;
11839;SDS011;5979;50.800;4.904;2024-01-25T04:59:32;23.35;;;5.70;;
11839;SDS011;5979;50.800;4.904;2024-01-25T05:01:59;22.77;;;6.45;;
11839;SDS011;5979;50.800;4.904;2024-01-25T05:04:25;24.17;;;6.65;;
11839;SDS011;5979;50.800;4.904;2024-01-25T05:06:51;24.45;;;6.13;;
11839;SDS011;5979;50.800;4.904;2024-01-25T05:09:16;23.55;;;6.78;;
11839;SDS011;5979;50.800;4.904;2024-01-25T05:11:42;35.63;;;8.02;;
11839;SDS011;5979;50.800;4.904;2024-01-25T05:14:08;21.48;;;5.78;;
11839;SDS011;5979;50.800;4.904;2024-01-25T05:16:33;16.73;;;4.82;;
11839;SDS011;5979;50.800;4.904;2024-01-25T05:19:00;25.23;;;5.68;;
11839;SDS011;5979;50.800;4.904;2024-01-25T05:21:26;23.00;;;5.57;;
11839;SDS011;5979;50.800;4.904;2024-01-25T05:23:51;17.55;;;4.60;;
11839;SDS011;5979;50.800;4.904;2024-01-25T05:26:17;12.75;;;4.90;;
11839;SDS011;5979;50.800;4.904;2024-01-25T05:28:43;18.35;;;4.78;;
11839;SDS011;5979;50.800;4.904;2024-01-25T05:31:10;22.38;;;6.13;;
11839;SDS011;5979;50.800;4.904;2024-01-25T05:33:38;16.08;;;4.57;;
11839;SDS011;5979;50.800;4.904;2024-01-25T05:36:04;16.73;;;5.20;;
11839;SDS011;5979;50.800;4.904;2024-01-25T05:38:31;18.30;;;5.18;;
11839;SDS011;5979;50.800;4.904;2024-01-25T05:40:57;14.75;;;4.55;;
11839;SDS011;5979;50.800;4.904;2024-01-25T05:43:23;16.88;;;5.05;;
11839;SDS011;5979;50.800;4.904;2024-01-25T05:45:49;23.20;;;6.00;;
11839;SDS011;5979;50.800;4.904;2024-01-25T05:48:15;21.83;;;6.38;;
11839;SDS011;5979;50.800;4.904;2024-01-25T05:50:41;14.70;;;4.93;;
11839;SDS011;5979;50.800;4.904;2024-01-25T05:53:06;16.67;;;5.30;;
11839;SDS011;5979;50.800;4.904;2024-01-25T05:55:32;17.75;;;4.60;;
11839;SDS011;5979;50.800;4.904;2024-01-25T05:57:58;18.85;;;4.63;;
11839;SDS011;5979;50.800;4.904;2024-01-25T06:00:23;24.50;;;5.78;;
11839;SDS011;5979;50.800;4.904;2024-01-25T06:02:49;19.13;;;5.30;;
11839;SDS011;5979;50.800;4.904;2024-01-25T06:05:15;24.13;;;5.82;;
11839;SDS011;5979;50.800;4.904;2024-01-25T06:07:41;27.13;;;7.43;;
11839;SDS011;5979;50.800;4.904;2024-01-25T06:10:07;22.65;;;6.32;;
11839;SDS011;5979;50.800;4.904;2024-01-25T06:12:33;15.75;;;4.88;;
11839;SDS011;5979;50.800;4.904;2024-01-25T06:14:59;24.65;;;6.03;;
11839;SDS011;5979;50.800;4.904;2024-01-25T06:17:25;22.33;;;5.80;;
11839;SDS011;5979;50.800;4.904;2024-01-25T06:19:50;25.70;;;6.40;;
11839;SDS011;5979;50.800;4.904;2024-01-25T06:22:16;30.48;;;7.18;;
11839;SDS011;5979;50.800;4.904;2024-01-25T06:24:42;24.13;;;6.53;;
11839;SDS011;5979;50.800;4.904;2024-01-25T06:27:11;28.55;;;6.45;;
11839;SDS011;5979;50.800;4.904;2024-01-25T06:29:37;20.90;;;5.13;;
11839;SDS011;5979;50.800;4.904;2024-01-25T06:32:02;15.88;;;5.32;;
11839;SDS011;5979;50.800;4.904;2024-01-25T06:34:28;22.13;;;5.78;;
11839;SDS011;5979;50.800;4.904;2024-01-25T06:36:54;23.08;;;6.80;;
11839;SDS011;5979;50.800;4.904;2024-01-25T06:39:19;15.90;;;6.22;;
11839;SDS011;5979;50.800;4.904;2024-01-25T06:41:45;20.00;;;5.60;;
11839;SDS011;5979;50.800;4.904;2024-01-25T06:44:11;24.33;;;6.15;;
11839;SDS011;5979;50.800;4.904;2024-01-25T06:46:38;29.20;;;6.53;;
11839;SDS011;5979;50.800;4.904;2024-01-25T06:49:03;20.80;;;5.70;;
11839;SDS011;5979;50.800;4.904;2024-01-25T06:51:29;21.73;;;5.38;;
11839;SDS011;5979;50.800;4.904;2024-01-25T06:53:55;26.80;;;7.25;;
11839;SDS011;5979;50.800;4.904;2024-01-25T06:56:21;30.13;;;6.47;;
11839;SDS011;5979;50.800;4.904;2024-01-25T06:58:46;24.05;;;6.38;;
11839;SDS011;5979;50.800;4.904;2024-01-25T07:01:12;27.83;;;6.75;;
11839;SDS011;5979;50.800;4.904;2024-01-25T07:03:38;22.63;;;6.75;;
11839;SDS011;5979;50.800;4.904;2024-01-25T07:06:04;25.05;;;6.53;;
11839;SDS011;5979;50.800;4.904;2024-01-25T07:08:30;21.92;;;6.15;;
11839;SDS011;5979;50.800;4.904;2024-01-25T07:10:56;23.98;;;6.28;;
11839;SDS011;5979;50.800;4.904;2024-01-25T07:13:24;27.83;;;6.97;;
11839;SDS011;5979;50.800;4.904;2024-01-25T07:15:50;22.65;;;6.85;;
11839;SDS011;5979;50.800;4.904;2024-01-25T07:18:15;28.02;;;7.30;;
11839;SDS011;5979;50.800;4.904;2024-01-25T07:20:41;22.27;;;6.20;;
11839;SDS011;5979;50.800;4.904;2024-01-25T07:23:07;25.20;;;7.05;;
11839;SDS011;5979;50.800;4.904;2024-01-25T07:25:33;17.02;;;6.53;;
11839;SDS011;5979;50.800;4.904;2024-01-25T07:27:59;20.17;;;6.88;;
11839;SDS011;5979;50.800;4.904;2024-01-25T07:30:24;15.57;;;6.88;;
11839;SDS011;5979;50.800;4.904;2024-01-25T07:32:50;22.55;;;7.97;;
11839;SDS011;5979;50.800;4.904;2024-01-25T07:35:16;22.05;;;7.70;;
11839;SDS011;5979;50.800;4.904;2024-01-25T07:37:42;19.35;;;7.43;;
11839;SDS011;5979;50.800;4.904;2024-01-25T07:40:08;18.00;;;7.90;;
11839;SDS011;5979;50.800;4.904;2024-01-25T07:42:34;14.55;;;7.28;;
11839;SDS011;5979;50.800;4.904;2024-01-25T07:45:00;14.63;;;7.95;;
11839;SDS011;5979;50.800;4.904;2024-01-25T07:47:26;18.42;;;7.90;;
11839;SDS011;5979;50.800;4.904;2024-01-25T07:49:51;13.77;;;8.30;;
11839;SDS011;5979;50.800;4.904;2024-01-25T07:52:17;10.23;;;6.80;;
11839;SDS011;5979;50.800;4.904;2024-01-25T07:54:43;16.33;;;8.13;;
11839;SDS011;5979;50.800;4.904;2024-01-25T07:57:09;11.68;;;6.95;;
11839;SDS011;5979;50.800;4.904;2024-01-25T07:59:35;9.48;;;7.28;;
11839;SDS011;5979;50.800;4.904;2024-01-25T08:02:01;12.63;;;7.57;;
11839;SDS011;5979;50.800;4.904;2024-01-25T08:04:26;11.52;;;7.53;;
11839;SDS011;5979;50.800;4.904;2024-01-25T08:06:52;8.80;;;6.85;;
11839;SDS011;5979;50.800;4.904;2024-01-25T08:09:18;10.73;;;7.20;;
11839;SDS011;5979;50.800;4.904;2024-01-25T08:11:43;10.30;;;7.05;;
11839;SDS011;5979;50.800;4.904;2024-01-25T08:14:09;10.15;;;6.50;;
11839;SDS011;5979;50.800;4.904;2024-01-25T08:16:36;12.30;;;7.72;;
11839;SDS011;5979;50.800;4.904;2024-01-25T08:19:02;15.80;;;8.40;;
11839;SDS011;5979;50.800;4.904;2024-01-25T08:21:28;15.15;;;8.65;;
11839;SDS011;5979;50.800;4.904;2024-01-25T08:23:54;14.65;;;8.93;;
11839;SDS011;5979;50.800;4.904;2024-01-25T08:26:19;14.38;;;8.40;;
11839;SDS011;5979;50.800;4.904;2024-01-25T08:28:45;11.20;;;8.18;;
11839;SDS011;5979;50.800;4.904;2024-01-25T08:31:12;16.58;;;9.30;;
11839;SDS011;5979;50.800;4.904;2024-01-25T08:33:38;15.40;;;8.68;;
11839;SDS011;5979;50.800;4.904;2024-01-25T08:36:09;14.48;;;8.63;;
11839;SDS011;5979;50.800;4.904;2024-01-25T08:38:35;14.88;;;8.52;;
11839;SDS011;5979;50.800;4.904;2024-01-25T08:41:01;15.18;;;8.68;;
11839;SDS011;5979;50.800;4.904;2024-01-25T08:43:27;17.92;;;8.98;;
11839;SDS011;5979;50.800;4.904;2024-01-25T08:45:53;16.88;;;8.95;;
11839;SDS011;5979;50.800;4.904;2024-01-25T08:48:19;15.35;;;8.52;;
11839;SDS011;5979;50.800;4.904;2024-01-25T08:50:44;18.70;;;9.05;;
11839;SDS011;5979;50.800;4.904;2024-01-25T08:53:10;19.13;;;9.82;;
11839;SDS011;5979;50.800;4.904;2024-01-25T08:55:36;15.60;;;8.32;;
11839;SDS011;5979;50.800;4.904;2024-01-25T08:58:02;14.95;;;8.98;;
11839;SDS011;5979;50.800;4.904;2024-01-25T09:00:27;16.15;;;9.23;;
11839;SDS011;5979;50.800;4.904;2024-01-25T09:02:53;15.05;;;9.45;;
11839;SDS011;5979;50.800;4.904;2024-01-25T09:05:19;16.50;;;8.75;;
11839;SDS011;5979;50.800;4.904;2024-01-25T09:07:45;17.27;;;10.13;;
11839;SDS011;5979;50.800;4.904;2024-01-25T09:10:10;21.45;;;9.52;;
11839;SDS011;5979;50.800;4.904;2024-01-25T09:12:37;15.75;;;9.20;;
11839;SDS011;5979;50.800;4.904;2024-01-25T09:15:03;16.13;;;9.85;;
11839;SDS011;5979;50.800;4.904;2024-01-25T09:17:29;16.38;;;9.82;;
11839;SDS011;5979;50.800;4.904;2024-01-25T09:19:54;14.75;;;9.57;;
11839;SDS011;5979;50.800;4.904;2024-01-25T09:22:23;18.58;;;9.68;;
11839;SDS011;5979;50.800;4.904;2024-01-25T09:24:49;16.58;;;9.85;;
11839;SDS011;5979;50.800;4.904;2024-01-25T09:27:15;17.13;;;10.23;;
11839;SDS011;5979;50.800;4.904;2024-01-25T09:29:41;26.10;;;11.18;;
11839;SDS011;5979;50.800;4.904;2024-01-25T09:32:07;16.42;;;10.18;;
11839;SDS011;5979;50.800;4.904;2024-01-25T09:34:34;20.38;;;10.60;;
11839;SDS011;5979;50.800;4.904;2024-01-25T09:37:01;27.35;;;11.77;;
11839;SDS011;5979;50.800;4.904;2024-01-25T09:39:27;24.85;;;12.30;;
11839;SDS011;5979;50.800;4.904;2024-01-25T09:41:53;23.70;;;12.57;;
11839;SDS011;5979;50.800;4.904;2024-01-25T09:44:19;22.80;;;12.75;;
11839;SDS011;5979;50.800;4.904;2024-01-25T09:46:45;27.88;;;13.32;;
11839;SDS011;5979;50.800;4.904;2024-01-25T09:49:11;23.75;;;11.77;;
11839;SDS011;5979;50.800;4.904;2024-01-25T09:51:38;23.52;;;12.13;;
11839;SDS011;5979;50.800;4.904;2024-01-25T09:54:06;23.00;;;12.57;;
11839;SDS011;5979;50.800;4.904;2024-01-25T09:56:33;27.40;;;12.75;;
11839;SDS011;5979;50.800;4.904;2024-01-25T09:58:59;27.63;;;12.65;;
11839;SDS011;5979;50.800;4.904;2024-01-25T10:01:26;27.98;;;12.13;;
11839;SDS011;5979;50.800;4.904;2024-01-25T10:03:52;26.70;;;12.75;;
11839;SDS011;5979;50.800;4.904;2024-01-25T10:06:21;25.83;;;12.05;;
11839;SDS011;5979;50.800;4.904;2024-01-25T10:08:48;23.02;;;11.25;;
11839;SDS011;5979;50.800;4.904;2024-01-25T10:11:14;36.03;;;13.48;;
11839;SDS011;5979;50.800;4.904;2024-01-25T10:13:40;21.25;;;12.00;;
11839;SDS011;5979;50.800;4.904;2024-01-25T10:16:13;27.65;;;12.05;;
11839;SDS011;5979;50.800;4.904;2024-01-25T10:18:40;29.67;;;12.10;;
11839;SDS011;5979;50.800;4.904;2024-01-25T10:21:08;22.45;;;11.05;;
11839;SDS011;5979;50.800;4.904;2024-01-25T10:23:35;24.70;;;10.98;;
11839;SDS011;5979;50.800;4.904;2024-01-25T10:26:00;21.85;;;10.43;;
11839;SDS011;5979;50.800;4.904;2024-01-25T10:28:32;25.42;;;10.98;;
11839;SDS011;5979;50.800;4.904;2024-01-25T10:30:59;20.88;;;10.27;;
11839;SDS011;5979;50.800;4.904;2024-01-25T10:33:26;25.17;;;10.70;;
11839;SDS011;5979;50.800;4.904;2024-01-25T10:35:56;22.38;;;10.60;;
11839;SDS011;5979;50.800;4.904;2024-01-25T10:38:34;33.60;;;12.60;;
11839;SDS011;5979;50.800;4.904;2024-01-25T10:41:01;24.02;;;11.15;;
11839;SDS011;5979;50.800;4.904;2024-01-25T10:43:28;26.15;;;11.25;;
11839;SDS011;5979;50.800;4.904;2024-01-25T10:45:57;27.92;;;11.15;;
11839;SDS011;5979;50.800;4.904;2024-01-25T10:48:27;32.65;;;13.00;;
11839;SDS011;5979;50.800;4.904;2024-01-25T10:50:56;34.92;;;14.15;;
11839;SDS011;5979;50.800;4.904;2024-01-25T10:53:24;31.80;;;14.10;;
11839;SDS011;5979;50.800;4.904;2024-01-25T10:55:54;38.13;;;15.40;;
11839;SDS011;5979;50.800;4.904;2024-01-25T10:58:20;37.63;;;15.15;;
11839;SDS011;5979;50.800;4.904;2024-01-25T11:00:50;38.30;;;16.88;;
11839;SDS011;5979;50.800;4.904;2024-01-25T11:03:17;46.42;;;19.25;;
11839;SDS011;5979;50.800;4.904;2024-01-25T11:05:43;45.90;;;19.77;;
11839;SDS011;5979;50.800;4.904;2024-01-25T11:08:17;44.20;;;17.90;;
11839;SDS011;5979;50.800;4.904;2024-01-25T11:10:46;46.92;;;19.05;;
11839;SDS011;5979;50.800;4.904;2024-01-25T11:13:16;53.67;;;18.73;;
11839;SDS011;5979;50.800;4.904;2024-01-25T11:15:49;51.15;;;18.42;;
11839;SDS011;5979;50.800;4.904;2024-01-25T11:18:15;44.28;;;18.17;;
11839;SDS011;5979;50.800;4.904;2024-01-25T11:20:41;42.63;;;17.13;;
11839;SDS011;5979;50.800;4.904;2024-01-25T11:23:07;36.40;;;16.08;;
11839;SDS011;5979;50.800;4.904;2024-01-25T11:25:36;41.95;;;16.33;;
11839;SDS011;5979;50.800;4.904;2024-01-25T11:28:03;33.85;;;15.07;;
11839;SDS011;5979;50.800;4.904;2024-01-25T11:30:33;34.85;;;15.32;;
11839;SDS011;5979;50.800;4.904;2024-01-25T11:33:00;38.13;;;15.50;;
11839;SDS011;5979;50.800;4.904;2024-01-25T11:35:30;34.80;;;14.00;;
11839;SDS011;5979;50.800;4.904;2024-01-25T11:37:56;31.98;;;14.23;;
11839;SDS011;5979;50.800;4.904;2024-01-25T11:40:23;26.67;;;13.43;;
11839;SDS011;5979;50.800;4.904;2024-01-25T11:45:35;28.30;;;11.27;;
11839;SDS011;5979;50.800;4.904;2024-01-25T11:48:07;31.70;;;12.07;;
11839;SDS011;5979;50.800;4.904;2024-01-25T11:50:33;23.98;;;9.82;;
11839;SDS011;5979;50.800;4.904;2024-01-25T11:52:58;24.55;;;10.00;;
11839;SDS011;5979;50.800;4.904;2024-01-25T11:55:24;30.63;;;11.10;;
11839;SDS011;5979;50.800;4.904;2024-01-25T11:57:50;23.92;;;9.23;;
11839;SDS011;5979;50.800;4.904;2024-01-25T12:00:16;23.00;;;10.25;;
11839;SDS011;5979;50.800;4.904;2024-01-25T12:02:43;20.23;;;10.13;;
11839;SDS011;5979;50.800;4.904;2024-01-25T12:05:09;23.20;;;10.63;;
11839;SDS011;5979;50.800;4.904;2024-01-25T12:07:38;20.58;;;10.75;;
11839;SDS011;5979;50.800;4.904;2024-01-25T12:10:05;25.15;;;9.88;;
11839;SDS011;5979;50.800;4.904;2024-01-25T12:12:36;23.75;;;9.95;;
11839;SDS011;5979;50.800;4.904;2024-01-25T12:15:04;23.48;;;9.75;;
11839;SDS011;5979;50.800;4.904;2024-01-25T12:17:31;24.33;;;10.18;;
11839;SDS011;5979;50.800;4.904;2024-01-25T12:19:57;22.23;;;9.45;;
11839;SDS011;5979;50.800;4.904;2024-01-25T12:22:24;25.73;;;9.68;;
11839;SDS011;5979;50.800;4.904;2024-01-25T12:24:56;19.20;;;8.50;;
11839;SDS011;5979;50.800;4.904;2024-01-25T12:27:23;21.30;;;9.32;;
11839;SDS011;5979;50.800;4.904;2024-01-25T12:29:52;19.30;;;9.38;;
11839;SDS011;5979;50.800;4.904;2024-01-25T12:32:22;26.63;;;10.05;;
11839;SDS011;5979;50.800;4.904;2024-01-25T12:34:54;26.35;;;9.40;;
11839;SDS011;5979;50.800;4.904;2024-01-25T12:37:23;24.50;;;10.40;;
11839;SDS011;5979;50.800;4.904;2024-01-25T12:39:53;25.10;;;10.20;;
11839;SDS011;5979;50.800;4.904;2024-01-25T12:42:19;25.25;;;8.73;;
11839;SDS011;5979;50.800;4.904;2024-01-25T12:44:46;23.00;;;8.10;;
11839;SDS011;5979;50.800;4.904;2024-01-25T12:47:12;19.75;;;9.30;;
11839;SDS011;5979;50.800;4.904;2024-01-25T12:49:44;20.25;;;8.23;;
11839;SDS011;5979;50.800;4.904;2024-01-25T12:52:10;19.50;;;6.97;;
11839;SDS011;5979;50.800;4.904;2024-01-25T12:54:37;17.30;;;7.82;;
11839;SDS011;5979;50.800;4.904;2024-01-25T12:59:48;17.27;;;7.47;;
11839;SDS011;5979;50.800;4.904;2024-01-25T13:02:14;18.38;;;7.53;;
11839;SDS011;5979;50.800;4.904;2024-01-25T13:04:40;18.50;;;6.88;;
11839;SDS011;5979;50.800;4.904;2024-01-25T13:07:06;18.55;;;7.70;;
11839;SDS011;5979;50.800;4.904;2024-01-25T13:09:31;22.95;;;7.57;;
11839;SDS011;5979;50.800;4.904;2024-01-25T13:11:59;17.65;;;8.13;;
11839;SDS011;5979;50.800;4.904;2024-01-25T13:14:26;21.10;;;7.72;;
11839;SDS011;5979;50.800;4.904;2024-01-25T13:16:51;17.02;;;7.70;;
11839;SDS011;5979;50.800;4.904;2024-01-25T13:19:17;21.48;;;9.10;;
11839;SDS011;5979;50.800;4.904;2024-01-25T13:21:43;20.00;;;8.40;;
11839;SDS011;5979;50.800;4.904;2024-01-25T13:24:08;15.25;;;8.35;;
11839;SDS011;5979;50.800;4.904;2024-01-25T13:26:35;13.63;;;6.95;;
11839;SDS011;5979;50.800;4.904;2024-01-25T13:29:01;18.85;;;8.15;;
11839;SDS011;5979;50.800;4.904;2024-01-25T13:31:27;13.60;;;6.50;;
11839;SDS011;5979;50.800;4.904;2024-01-25T13:33:53;14.30;;;7.15;;
11839;SDS011;5979;50.800;4.904;2024-01-25T13:36:19;11.43;;;6.50;;
11839;SDS011;5979;50.800;4.904;2024-01-25T13:38:45;11.63;;;6.80;;
11839;SDS011;5979;50.800;4.904;2024-01-25T13:41:10;12.98;;;6.43;;
11839;SDS011;5979;50.800;4.904;2024-01-25T13:43:36;12.30;;;6.65;;
11839;SDS011;5979;50.800;4.904;2024-01-25T13:46:02;12.13;;;6.45;;
11839;SDS011;5979;50.800;4.904;2024-01-25T13:48:27;12.02;;;6.72;;
11839;SDS011;5979;50.800;4.904;2024-01-25T13:50:53;8.90;;;6.00;;
11839;SDS011;5979;50.800;4.904;2024-01-25T13:53:19;7.05;;;5.65;;
11839;SDS011;5979;50.800;4.904;2024-01-25T13:55:44;13.48;;;5.63;;
11839;SDS011;5979;50.800;4.904;2024-01-25T13:58:10;8.98;;;5.47;;
11839;SDS011;5979;50.800;4.904;2024-01-25T14:00:36;9.93;;;5.43;;
11839;SDS011;5979;50.800;4.904;2024-01-25T14:03:02;9.38;;;5.40;;
11839;SDS011;5979;50.800;4.904;2024-01-25T14:05:27;6.55;;;4.57;;
11839;SDS011;5979;50.800;4.904;2024-01-25T14:07:53;7.93;;;5.40;;
11839;SDS011;5979;50.800;4.904;2024-01-25T14:10:19;11.13;;;4.97;;
11839;SDS011;5979;50.800;4.904;2024-01-25T14:12:45;4.65;;;4.20;;
11839;SDS011;5979;50.800;4.904;2024-01-25T14:15:11;5.78;;;4.65;;
11839;SDS011;5979;50.800;4.904;2024-01-25T14:17:37;9.02;;;4.47;;
11839;SDS011;5979;50.800;4.904;2024-01-25T14:20:03;8.25;;;4.32;;
11839;SDS011;5979;50.800;4.904;2024-01-25T14:22:30;8.13;;;4.50;;
11839;SDS011;5979;50.800;4.904;2024-01-25T14:24:56;4.20;;;3.80;;
11839;SDS011;5979;50.800;4.904;2024-01-25T14:27:21;5.00;;;3.65;;
11839;SDS011;5979;50.800;4.904;2024-01-25T14:29:47;7.28;;;3.95;;
11839;SDS011;5979;50.800;4.904;2024-01-25T14:32:13;5.43;;;3.83;;
11839;SDS011;5979;50.800;4.904;2024-01-25T14:34:38;4.43;;;3.42;;
11839;SDS011;5979;50.800;4.904;2024-01-25T14:37:05;5.38;;;3.60;;
11839;SDS011;5979;50.800;4.904;2024-01-25T14:39:31;6.68;;;3.67;;
11839;SDS011;5979;50.800;4.904;2024-01-25T14:41:57;5.07;;;3.30;;
11839;SDS011;5979;50.800;4.904;2024-01-25T14:44:22;5.32;;;3.22;;
11839;SDS011;5979;50.800;4.904;2024-01-25T14:46:48;3.72;;;3.05;;
11839;SDS011;5979;50.800;4.904;2024-01-25T14:49:14;3.22;;;2.90;;
11839;SDS011;5979;50.800;4.904;2024-01-25T14:51:40;4.63;;;3.50;;